createdAt,value
2019-02-21T00:00:23.931Z,19.47
2019-02-21T00:02:47.028Z,18.17
2019-02-21T00:05:35.341Z,21.30
2019-02-21T00:08:04.671Z,17.80
2019-02-21T00:10:54.316Z,17.30
2019-02-21T00:13:23.645Z,16.40
2019-02-21T00:18:28.274Z,14.67
2019-02-21T00:20:57.544Z,15.27
2019-02-21T00:26:44.174Z,19.53
2019-02-21T00:29:12.988Z,18.57
2019-02-21T00:31:42.385Z,16.70
2019-02-21T00:34:11.858Z,15.90
2019-02-21T00:39:17.254Z,18.73
2019-02-21T00:41:46.529Z,17.73
2019-02-21T00:44:15.756Z,17.47
2019-02-21T00:52:20.504Z,17.93
2019-02-21T00:55:29.141Z,19.13
2019-02-21T00:58:10.043Z,19.33
2019-02-21T01:00:58.387Z,19.30
2019-02-21T01:03:27.750Z,19.43
2019-02-21T01:08:47.874Z,16.27
2019-02-21T01:11:18.249Z,19.77
2019-02-21T01:14:08.059Z,18.50
2019-02-21T01:16:37.263Z,14.70
2019-02-21T01:19:06.531Z,17.27
2019-02-21T01:21:56.784Z,17.80
2019-02-21T01:24:26.233Z,16.33
2019-02-21T01:26:55.458Z,16.57
2019-02-21T01:29:24.643Z,14.73
2019-02-21T01:32:14.429Z,21.70
2019-02-21T01:35:02.809Z,19.57
2019-02-21T01:40:25.893Z,15.63
2019-02-21T01:43:15.806Z,18.20
2019-02-21T01:45:47.149Z,20.67
2019-02-21T01:51:33.927Z,19.90
2019-02-21T01:54:03.138Z,16.70
2019-02-21T01:56:32.345Z,17.43
2019-02-21T01:59:40.941Z,14.10
2019-02-21T02:02:10.547Z,16.63
2019-02-21T02:05:00.228Z,17.00
2019-02-21T02:07:29.555Z,19.17
2019-02-21T02:12:46.893Z,17.07
2019-02-21T02:15:56.714Z,20.90
2019-02-21T02:18:46.766Z,20.37
2019-02-21T02:21:15.979Z,21.50
2019-02-21T02:26:59.869Z,17.03
2019-02-21T02:29:48.498Z,15.80
2019-02-21T02:32:29.876Z,17.27
2019-02-21T02:34:59.910Z,16.93
2019-02-21T02:37:30.020Z,16.70
2019-02-21T02:39:59.961Z,16.83
2019-02-21T02:45:53.378Z,15.50
2019-02-21T02:51:12.404Z,23.00
2019-02-21T02:53:41.642Z,16.67
2019-02-21T02:56:12.168Z,18.57
2019-02-21T02:58:41.325Z,14.53
2019-02-21T03:01:10.608Z,17.10
2019-02-21T03:03:58.838Z,15.13
2019-02-21T03:06:27.940Z,19.43
2019-02-21T03:08:57.211Z,21.70
2019-02-21T03:12:05.835Z,15.67
2019-02-21T03:14:37.201Z,19.77
2019-02-21T03:17:06.538Z,15.37
2019-02-21T03:19:35.727Z,19.03
2019-02-21T03:22:24.013Z,16.17
2019-02-21T03:24:53.306Z,17.00
2019-02-21T03:27:42.956Z,18.20
2019-02-21T03:30:34.847Z,15.27
2019-02-21T03:33:04.119Z,18.17
2019-02-21T03:35:35.985Z,16.50
2019-02-21T03:38:05.420Z,16.87
2019-02-21T03:43:49.061Z,16.87
2019-02-21T03:46:57.700Z,17.73
2019-02-21T03:49:27.475Z,16.17
2019-02-21T03:52:17.099Z,20.87
2019-02-21T03:54:58.770Z,16.70
2019-02-21T03:57:28.070Z,14.03
2019-02-21T03:59:57.282Z,18.00
2019-02-21T04:02:28.897Z,16.43
2019-02-21T04:04:58.131Z,17.47
2019-02-21T04:07:27.343Z,17.10
2019-02-21T04:09:56.625Z,16.30
2019-02-21T04:12:25.986Z,17.83
2019-02-21T04:14:55.330Z,20.70
2019-02-21T04:20:41.658Z,16.77
2019-02-21T04:25:59.776Z,16.67
2019-02-21T04:28:49.542Z,15.17
2019-02-21T04:31:38.046Z,16.70
2019-02-21T04:34:07.297Z,19.67
2019-02-21T04:36:36.732Z,15.83
2019-02-21T04:39:26.822Z,22.73
2019-02-21T04:41:56.173Z,17.57
2019-02-21T04:44:25.376Z,17.77
2019-02-21T04:47:13.471Z,17.00
2019-02-21T04:50:22.205Z,18.07
2019-02-21T04:52:51.408Z,18.17
2019-02-21T04:55:20.884Z,16.33
2019-02-21T04:57:50.215Z,18.13
2019-02-21T05:00:19.752Z,18.20
2019-02-21T05:03:08.112Z,18.47
2019-02-21T05:05:37.678Z,26.20
2019-02-21T05:08:26.007Z,16.57
2019-02-21T05:14:03.898Z,21.07
2019-02-21T05:16:33.478Z,18.23
2019-02-21T05:19:02.740Z,42.63
2019-02-21T05:21:32.043Z,21.50
2019-02-21T05:24:03.527Z,21.47
2019-02-21T05:29:17.503Z,17.57
2019-02-21T05:32:05.758Z,20.77
2019-02-21T05:34:54.074Z,18.53
2019-02-21T05:37:42.232Z,19.20
2019-02-21T05:40:32.712Z,22.37
2019-02-21T05:43:20.789Z,21.60
2019-02-21T05:46:08.895Z,21.83
2019-02-21T05:48:57.066Z,20.27
2019-02-21T05:51:31.577Z,25.07
2019-02-21T05:54:15.005Z,19.83
2019-02-21T05:57:04.747Z,26.43
2019-02-21T05:59:52.888Z,25.27
2019-02-21T06:02:52.572Z,23.70
2019-02-21T06:05:31.131Z,22.47
2019-02-21T06:08:19.536Z,21.97
2019-02-21T06:11:07.754Z,21.93
2019-02-21T06:13:55.901Z,28.90
2019-02-21T06:16:44.214Z,21.03
2019-02-21T06:19:32.525Z,20.47
2019-02-21T06:22:29.614Z,93.50
2019-02-21T06:25:17.756Z,21.53
2019-02-21T06:31:04.623Z,23.10
2019-02-21T06:33:33.840Z,22.20
2019-02-21T06:38:58.707Z,24.37
2019-02-21T06:42:09.093Z,25.27
2019-02-21T06:47:28.449Z,26.73
2019-02-21T06:49:58.733Z,22.27
2019-02-21T06:52:28.848Z,22.00
2019-02-21T06:54:58.252Z,22.67
2019-02-21T06:57:48.000Z,24.23
2019-02-21T07:00:17.622Z,24.33
2019-02-21T07:05:48.602Z,21.97
2019-02-21T07:08:18.078Z,24.17
2019-02-21T07:10:47.477Z,21.37
2019-02-21T07:13:26.092Z,21.63
2019-02-21T07:15:47.801Z,27.77
2019-02-21T07:18:17.543Z,24.33
2019-02-21T07:20:46.803Z,25.70
2019-02-21T07:23:16.150Z,23.23
2019-02-21T07:28:41.654Z,25.23
2019-02-21T07:31:11.538Z,29.30
2019-02-21T07:33:41.089Z,22.33
2019-02-21T07:36:11.129Z,26.03
2019-02-21T07:39:13.859Z,29.63
2019-02-21T07:44:47.111Z,22.00
2019-02-21T07:47:16.472Z,25.70
2019-02-21T07:50:11.082Z,21.83
2019-02-21T07:52:40.420Z,24.47
2019-02-21T08:01:12.805Z,27.10
2019-02-21T08:04:01.135Z,22.83
2019-02-21T08:06:32.229Z,34.40
2019-02-21T08:09:20.854Z,28.17
2019-02-21T08:14:34.004Z,22.17
2019-02-21T08:17:03.278Z,23.50
2019-02-21T08:22:22.146Z,25.67
2019-02-21T08:24:51.378Z,23.73
2019-02-21T08:27:20.902Z,33.63
2019-02-21T08:29:50.360Z,27.67
2019-02-21T08:35:14.711Z,23.83
2019-02-21T08:37:43.968Z,30.40
2019-02-21T08:40:13.298Z,26.13
2019-02-21T08:43:04.000Z,25.07
2019-02-21T08:45:32.753Z,28.10
2019-02-21T08:48:01.971Z,29.87
2019-02-21T08:50:31.348Z,22.97
2019-02-21T08:53:01.205Z,30.00
2019-02-21T08:55:52.821Z,31.43
2019-02-21T08:58:22.526Z,29.30
2019-02-21T09:00:54.349Z,26.40
2019-02-21T09:03:22.991Z,27.27
2019-02-21T09:05:52.333Z,26.13
2019-02-21T09:11:23.624Z,26.50
2019-02-21T09:13:52.898Z,24.63
2019-02-21T09:16:22.231Z,31.63
2019-02-21T09:18:51.503Z,31.00
2019-02-21T09:21:20.717Z,24.50
2019-02-21T09:23:50.045Z,25.50
2019-02-21T09:26:21.525Z,25.63
2019-02-21T09:28:50.246Z,34.27
2019-02-21T09:31:19.443Z,33.43
2019-02-21T09:33:48.749Z,29.17
2019-02-21T09:36:17.954Z,33.07
2019-02-21T09:38:47.541Z,27.73
2019-02-21T09:41:16.850Z,27.03
2019-02-21T09:43:46.069Z,32.23
2019-02-21T09:46:40.551Z,30.27
2019-02-21T09:49:09.497Z,30.57
2019-02-21T09:51:38.763Z,28.40
2019-02-21T09:54:30.254Z,34.17
2019-02-21T09:56:59.521Z,33.43
2019-02-21T09:59:28.924Z,38.57
2019-02-21T10:04:35.036Z,31.53
2019-02-21T10:07:04.332Z,34.47
2019-02-21T10:09:34.008Z,35.87
2019-02-21T10:12:03.278Z,42.10
2019-02-21T10:14:32.556Z,34.87
2019-02-21T10:20:50.986Z,33.87
2019-02-21T10:23:20.878Z,32.27
2019-02-21T10:26:10.543Z,34.63
2019-02-21T10:28:39.901Z,41.77
2019-02-21T10:37:24.903Z,35.63
2019-02-21T10:39:54.613Z,44.20
2019-02-21T10:42:23.902Z,37.37
2019-02-21T10:44:53.234Z,39.53
2019-02-21T10:47:22.767Z,38.20
2019-02-21T10:49:52.147Z,37.10
2019-02-21T10:52:21.724Z,37.77
2019-02-21T10:54:51.099Z,35.67
2019-02-21T10:59:56.698Z,36.73
2019-02-21T11:05:01.811Z,35.47
2019-02-21T11:07:31.116Z,44.33
2019-02-21T11:10:00.676Z,35.73
2019-02-21T11:12:50.380Z,39.37
2019-02-21T11:15:19.692Z,43.17
2019-02-21T11:17:49.081Z,35.60
2019-02-21T11:20:20.864Z,36.53
2019-02-21T11:25:47.264Z,41.70
2019-02-21T11:28:18.573Z,39.30
2019-02-21T11:33:43.128Z,34.60
2019-02-21T11:36:35.119Z,37.03
2019-02-21T11:39:23.581Z,34.17
2019-02-21T11:41:52.856Z,37.10
2019-02-21T11:44:24.360Z,32.20
2019-02-21T11:46:53.735Z,35.63
2019-02-21T11:49:22.960Z,29.23
2019-02-21T11:51:52.577Z,26.90
2019-02-21T11:55:04.266Z,31.30
2019-02-21T11:57:33.910Z,46.93
2019-02-21T12:00:03.150Z,27.60
2019-02-21T12:02:38.842Z,29.07
2019-02-21T12:05:16.851Z,24.67
2019-02-21T12:07:37.195Z,30.97
2019-02-21T12:10:09.406Z,28.87
2019-02-21T12:12:38.602Z,32.57
2019-02-21T12:15:09.703Z,26.50
2019-02-21T12:17:42.799Z,25.50
2019-02-21T12:32:16.067Z,20.30
2019-02-21T12:35:05.804Z,23.27
2019-02-21T12:37:35.090Z,23.60
2019-02-21T12:40:23.445Z,23.23
2019-02-21T12:51:13.238Z,23.83
2019-02-21T12:56:51.065Z,18.83
2019-02-21T13:02:29.360Z,24.57
2019-02-21T13:04:58.678Z,23.83
2019-02-21T13:07:27.940Z,16.27
2019-02-21T13:12:52.790Z,18.40
2019-02-21T13:15:29.393Z,17.80
2019-02-21T13:17:58.592Z,22.30
2019-02-21T13:20:49.966Z,20.23
2019-02-21T13:23:19.217Z,20.83
2019-02-21T13:26:07.507Z,20.37
2019-02-21T13:28:36.954Z,28.67
2019-02-21T13:33:54.256Z,16.87
2019-02-21T13:36:23.523Z,19.40
2019-02-21T13:38:52.857Z,19.90
2019-02-21T13:41:22.094Z,18.87
2019-02-21T13:43:51.433Z,18.47
2019-02-21T13:46:20.622Z,25.60
2019-02-21T13:48:51.949Z,24.97
2019-02-21T13:51:21.430Z,21.33
2019-02-21T13:53:52.294Z,21.53
2019-02-21T13:56:22.009Z,22.43
2019-02-21T13:59:31.113Z,21.63
2019-02-21T14:02:00.369Z,25.87
2019-02-21T14:04:29.758Z,20.93
2019-02-21T14:06:58.971Z,23.73
2019-02-21T14:09:31.590Z,23.27
2019-02-21T14:12:21.341Z,23.53
2019-02-21T14:14:52.666Z,23.60
2019-02-21T14:17:21.998Z,25.63
2019-02-21T14:19:53.048Z,25.77
2019-02-21T14:22:22.337Z,22.67
2019-02-21T14:24:51.567Z,23.30
2019-02-21T14:27:39.658Z,31.73
2019-02-21T14:30:12.104Z,24.10
2019-02-21T14:32:41.388Z,25.80
2019-02-21T14:35:11.564Z,22.27
2019-02-21T14:37:40.826Z,23.57
2019-02-21T14:40:29.353Z,25.67
2019-02-21T14:42:58.600Z,27.60
2019-02-21T14:45:46.788Z,29.10
2019-02-21T14:48:16.127Z,25.87
2019-02-21T14:50:45.362Z,26.83
2019-02-21T14:53:14.662Z,24.53
2019-02-21T14:55:43.935Z,25.00
2019-02-21T14:58:13.350Z,25.43
2019-02-21T15:00:42.701Z,25.80
2019-02-21T15:03:21.567Z,24.07
2019-02-21T15:05:42.907Z,24.90
2019-02-21T15:08:12.213Z,25.63
2019-02-21T15:10:41.528Z,28.47
2019-02-21T15:13:10.787Z,24.90
2019-02-21T15:15:40.009Z,27.77
2019-02-21T15:18:11.284Z,24.63
2019-02-21T15:23:40.121Z,24.80
2019-02-21T15:26:09.404Z,24.90
2019-02-21T15:28:38.591Z,27.03
2019-02-21T15:31:07.930Z,23.00
2019-02-21T15:33:37.779Z,26.20
2019-02-21T15:36:07.206Z,24.73
2019-02-21T15:38:36.525Z,23.20
2019-02-21T15:41:24.816Z,27.73
2019-02-21T15:43:56.333Z,24.23
2019-02-21T15:46:25.648Z,29.63
2019-02-21T15:48:54.963Z,27.70
2019-02-21T15:51:25.770Z,24.47
2019-02-21T15:54:34.664Z,25.83
2019-02-21T15:57:03.886Z,26.03
2019-02-21T15:59:33.165Z,26.03
2019-02-21T16:02:02.430Z,26.10
2019-02-21T16:04:31.711Z,28.40
2019-02-21T16:09:35.947Z,29.13
2019-02-21T16:12:05.784Z,30.20
2019-02-21T16:14:38.517Z,27.27
2019-02-21T16:17:07.784Z,28.83
2019-02-21T16:19:37.174Z,29.07
2019-02-21T16:22:08.183Z,29.83
2019-02-21T16:24:56.480Z,30.57
2019-02-21T16:27:26.085Z,29.43
2019-02-21T16:29:55.171Z,30.13
2019-02-21T16:32:24.419Z,31.57
2019-02-21T16:34:53.640Z,27.30
2019-02-21T16:37:22.978Z,25.10
2019-02-21T16:40:12.768Z,35.53
2019-02-21T16:42:42.001Z,28.40
2019-02-21T16:45:12.402Z,31.43
2019-02-21T16:53:24.558Z,29.03
2019-02-21T16:55:53.853Z,30.03
2019-02-21T16:58:23.106Z,31.17
2019-02-21T17:06:41.818Z,26.67
2019-02-21T17:09:11.463Z,24.50
2019-02-21T17:11:40.797Z,27.57
2019-02-21T17:14:30.799Z,30.97
2019-02-21T17:17:19.182Z,23.67
2019-02-21T17:20:00.515Z,27.60
2019-02-21T17:22:29.992Z,24.00
2019-02-21T17:28:16.131Z,25.40
2019-02-21T17:31:23.535Z,28.40
2019-02-21T17:33:52.959Z,27.33
2019-02-21T17:36:41.407Z,25.93
2019-02-21T17:39:32.325Z,22.97
2019-02-21T17:42:02.616Z,26.40
2019-02-21T17:44:52.024Z,26.97
2019-02-21T17:47:22.022Z,25.37
2019-02-21T17:49:51.711Z,24.57
2019-02-21T17:52:23.261Z,29.70
2019-02-21T17:54:52.706Z,32.90
2019-02-21T17:57:24.033Z,27.40
2019-02-21T18:00:12.361Z,27.73
2019-02-21T18:02:41.860Z,30.87
2019-02-21T18:05:11.580Z,29.63
2019-02-21T18:07:40.864Z,26.23
2019-02-21T18:10:12.471Z,29.93
2019-02-21T18:13:00.845Z,28.67
2019-02-21T18:15:30.541Z,31.37
2019-02-21T18:17:59.910Z,28.20
2019-02-21T18:20:31.167Z,29.77
2019-02-21T18:23:00.750Z,26.77
2019-02-21T18:25:51.386Z,35.07
2019-02-21T18:28:20.665Z,28.40
2019-02-21T18:30:50.082Z,30.60
2019-02-21T18:33:40.011Z,33.17
2019-02-21T18:36:20.466Z,36.40
2019-02-21T18:38:49.653Z,33.33
2019-02-21T18:41:39.701Z,32.60
2019-02-21T18:44:09.136Z,32.23
2019-02-21T18:46:38.581Z,35.87
2019-02-21T18:49:07.789Z,35.30
2019-02-21T18:51:37.080Z,33.77
2019-02-21T18:57:32.691Z,35.87
2019-02-21T19:00:02.073Z,32.93
2019-02-21T19:05:35.495Z,39.93
2019-02-21T19:08:04.715Z,37.03
2019-02-21T19:11:08.247Z,36.27
2019-02-21T19:13:37.522Z,35.43
2019-02-21T19:16:06.797Z,34.73
2019-02-21T19:18:36.085Z,39.57
2019-02-21T19:21:05.401Z,38.40
2019-02-21T19:23:36.955Z,41.93
2019-02-21T19:26:06.423Z,37.00
2019-02-21T19:28:36.627Z,37.07
2019-02-21T19:31:30.088Z,37.67
2019-02-21T19:34:19.969Z,36.17
2019-02-21T19:36:49.816Z,40.63
2019-02-21T19:39:38.045Z,40.13
2019-02-21T19:42:26.321Z,39.33
2019-02-21T19:48:10.366Z,38.30
2019-02-21T19:50:39.881Z,37.50
2019-02-21T19:53:09.242Z,39.33
2019-02-21T19:55:38.419Z,39.90
2019-02-21T19:58:07.568Z,40.17
2019-02-21T20:00:37.535Z,35.07
2019-02-21T20:03:06.767Z,34.63
2019-02-21T20:05:36.055Z,36.87
2019-02-21T20:08:44.702Z,33.47
2019-02-21T20:11:16.546Z,37.87
2019-02-21T20:13:45.860Z,37.47
2019-02-21T20:19:42.854Z,35.13
2019-02-21T20:22:14.202Z,35.87
2019-02-21T20:24:43.520Z,44.23
2019-02-21T20:27:12.860Z,37.60
2019-02-21T20:29:42.095Z,38.23
2019-02-21T20:32:11.386Z,37.70
2019-02-21T20:34:40.595Z,37.70
2019-02-21T20:37:09.940Z,37.40
2019-02-21T20:39:58.024Z,36.77
2019-02-21T20:42:27.187Z,39.80
2019-02-21T20:45:36.288Z,34.80
2019-02-21T20:48:05.628Z,35.70
2019-02-21T20:50:34.871Z,34.97
2019-02-21T20:56:31.174Z,36.70
2019-02-21T20:59:00.427Z,40.33
2019-02-21T21:02:10.118Z,33.17
2019-02-21T21:04:40.388Z,29.57
2019-02-21T21:07:09.787Z,34.13
2019-02-21T21:09:38.995Z,39.77
2019-02-21T21:12:08.573Z,37.43
2019-02-21T21:14:37.803Z,36.33
2019-02-21T21:17:07.233Z,35.67
2019-02-21T21:23:23.175Z,37.70
2019-02-21T21:25:52.512Z,37.07
2019-02-21T21:28:21.914Z,32.37
2019-02-21T21:33:46.608Z,38.73
2019-02-21T21:36:34.802Z,38.27
2019-02-21T21:39:04.426Z,38.20
2019-02-21T21:41:34.069Z,43.47
2019-02-21T21:44:24.493Z,41.80
2019-02-21T21:47:05.861Z,39.90
2019-02-21T21:52:43.898Z,39.70
2019-02-21T21:55:13.312Z,38.80
2019-02-21T21:57:42.762Z,43.23
2019-02-21T22:00:52.968Z,41.63
2019-02-21T22:03:24.513Z,37.27
2019-02-21T22:05:53.764Z,44.20
2019-02-21T22:08:42.321Z,41.50
2019-02-21T22:11:11.597Z,39.83
2019-02-21T22:13:40.905Z,47.80
2019-02-21T22:16:10.119Z,53.00
2019-02-21T22:18:39.330Z,45.97
2019-02-21T22:21:27.651Z,40.97
2019-02-21T22:23:57.003Z,42.97
2019-02-21T22:26:26.226Z,39.47
2019-02-21T22:28:55.378Z,41.07
2019-02-21T22:32:04.127Z,46.23
2019-02-21T22:34:33.466Z,49.70
2019-02-21T22:37:02.785Z,48.90
2019-02-21T22:39:32.903Z,52.50
2019-02-21T22:42:02.208Z,50.57
2019-02-21T22:44:31.442Z,47.80
2019-02-21T22:47:19.748Z,48.33
2019-02-21T22:49:48.975Z,49.70
2019-02-21T22:52:18.152Z,51.80
2019-02-21T22:54:47.396Z,47.70
2019-02-21T22:57:19.149Z,46.03
2019-02-21T22:59:48.412Z,50.13
2019-02-21T23:02:19.886Z,53.13
2019-02-21T23:05:16.656Z,50.27
2019-02-21T23:08:24.009Z,51.03
2019-02-21T23:10:53.398Z,51.33
2019-02-21T23:13:22.705Z,50.60
2019-02-21T23:19:11.483Z,49.87
2019-02-21T23:21:40.833Z,56.40
2019-02-21T23:27:41.589Z,58.13
2019-02-21T23:37:10.718Z,56.47
2019-02-21T23:39:40.355Z,54.17
2019-02-21T23:42:29.144Z,55.70
2019-02-21T23:47:49.655Z,59.40
2019-02-21T23:53:19.644Z,58.70
2019-02-21T23:55:48.905Z,57.57
2019-02-21T23:58:18.199Z,59.87
